createdAt,value
2023-02-14T00:00:56.777Z,9.32
2023-02-14T00:01:56.425Z,9.25
2023-02-14T00:02:56.509Z,9.26
2023-02-14T00:03:56.432Z,9.25
2023-02-14T00:04:56.506Z,9.32
2023-02-14T00:05:56.445Z,9.37
2023-02-14T00:06:56.452Z,9.37
2023-02-14T00:07:56.460Z,9.36
2023-02-14T00:08:56.528Z,9.34
2023-02-14T00:09:56.491Z,9.37
2023-02-14T00:10:56.813Z,9.36
2023-02-14T00:11:56.488Z,9.31
2023-02-14T00:12:56.469Z,9.41
2023-02-14T00:13:56.484Z,9.37
2023-02-14T00:14:56.489Z,9.39
2023-02-14T00:15:56.570Z,9.41
2023-02-14T00:16:56.486Z,9.40
2023-02-14T00:17:56.493Z,9.40
2023-02-14T00:18:56.498Z,9.39
2023-02-14T00:19:56.499Z,9.37
2023-02-14T00:20:56.801Z,9.41
2023-02-14T00:21:56.515Z,9.32
2023-02-14T00:22:56.516Z,9.44
2023-02-14T00:23:56.516Z,9.44
2023-02-14T00:24:56.558Z,9.34
2023-02-14T00:25:56.527Z,9.43
2023-02-14T00:26:56.538Z,9.47
2023-02-14T00:27:56.532Z,9.48
2023-02-14T00:28:56.537Z,9.44
2023-02-14T00:29:56.574Z,9.44
2023-02-14T00:30:56.732Z,9.41
2023-02-14T00:31:56.599Z,9.46
2023-02-14T00:32:56.560Z,9.50
2023-02-14T00:33:56.568Z,9.50
2023-02-14T00:34:56.569Z,9.48
2023-02-14T00:35:56.568Z,9.44
2023-02-14T00:36:56.578Z,9.46
2023-02-14T00:38:02.841Z,9.51
2023-02-14T00:38:56.581Z,9.48
2023-02-14T00:39:56.585Z,9.46
2023-02-14T00:40:56.826Z,9.39
2023-02-14T00:41:56.590Z,9.40
2023-02-14T00:42:56.590Z,9.40
2023-02-14T00:43:56.603Z,9.40
2023-02-14T00:44:56.602Z,9.43
2023-02-14T00:45:56.783Z,9.40
2023-02-14T00:46:56.606Z,9.46
2023-02-14T00:47:56.612Z,9.34
2023-02-14T00:48:56.616Z,9.46
2023-02-14T00:49:56.620Z,9.50
2023-02-14T00:50:57.001Z,9.43
2023-02-14T00:51:56.629Z,9.39
2023-02-14T00:52:56.631Z,9.40
2023-02-14T00:53:56.642Z,9.37
2023-02-14T00:54:56.640Z,9.37
2023-02-14T00:55:56.644Z,9.39
2023-02-14T00:56:56.672Z,9.44
2023-02-14T00:57:56.654Z,9.36
2023-02-14T00:58:56.666Z,9.37
2023-02-14T00:59:56.676Z,9.36
2023-02-14T01:00:57.137Z,9.40
2023-02-14T01:01:56.677Z,9.37
2023-02-14T01:02:56.724Z,9.34
2023-02-14T01:03:56.692Z,9.40
2023-02-14T01:04:56.689Z,9.37
2023-02-14T01:05:56.708Z,9.41
2023-02-14T01:06:56.691Z,9.43
2023-02-14T01:07:56.693Z,9.37
2023-02-14T01:08:56.705Z,9.36
2023-02-14T01:09:56.699Z,9.34
2023-02-14T01:10:57.002Z,9.34
2023-02-14T01:11:56.727Z,9.41
2023-02-14T01:12:56.741Z,9.43
2023-02-14T01:13:56.717Z,9.40
2023-02-14T01:14:56.725Z,9.36
2023-02-14T01:15:56.727Z,9.41
2023-02-14T01:16:56.728Z,9.48
2023-02-14T01:17:56.735Z,9.36
2023-02-14T01:18:56.737Z,9.36
2023-02-14T01:19:56.745Z,9.48
2023-02-14T01:20:56.886Z,9.39
2023-02-14T01:21:56.748Z,9.44
2023-02-14T01:22:56.752Z,9.44
2023-02-14T01:23:56.757Z,9.51
2023-02-14T01:24:56.761Z,9.46
2023-02-14T01:25:56.770Z,9.40
2023-02-14T01:26:56.768Z,9.41
2023-02-14T01:27:56.774Z,9.43
2023-02-14T01:28:56.808Z,9.41
2023-02-14T01:29:56.851Z,9.37
2023-02-14T01:30:56.883Z,9.41
2023-02-14T01:31:56.846Z,9.36
2023-02-14T01:32:56.796Z,9.40
2023-02-14T01:33:56.817Z,9.32
2023-02-14T01:34:56.800Z,9.41
2023-02-14T01:35:56.808Z,9.41
2023-02-14T01:36:56.824Z,9.41
2023-02-14T01:37:56.813Z,9.36
2023-02-14T01:38:56.820Z,9.32
2023-02-14T01:39:56.822Z,9.37
2023-02-14T01:40:57.120Z,9.34
2023-02-14T01:41:56.836Z,9.31
2023-02-14T01:42:56.840Z,9.28
2023-02-14T01:43:56.855Z,9.28
2023-02-14T01:44:56.869Z,9.28
2023-02-14T01:45:56.948Z,9.19
2023-02-14T01:46:56.854Z,9.25
2023-02-14T01:47:56.866Z,9.18
2023-02-14T01:48:56.877Z,9.10
2023-02-14T01:49:56.873Z,9.16
2023-02-14T01:50:57.230Z,8.94
2023-02-14T01:51:56.881Z,9.08
2023-02-14T01:52:56.882Z,8.95
2023-02-14T01:53:56.893Z,8.94
2023-02-14T01:54:56.896Z,8.79
2023-02-14T01:55:56.899Z,8.78
2023-02-14T01:56:56.898Z,8.69
2023-02-14T01:57:56.905Z,8.66
2023-02-14T01:58:56.910Z,8.63
2023-02-14T01:59:56.913Z,8.64
2023-02-14T02:00:57.325Z,8.51
2023-02-14T02:01:56.987Z,8.51
2023-02-14T02:02:56.923Z,8.49
2023-02-14T02:03:56.937Z,8.53
2023-02-14T02:04:56.927Z,8.49
2023-02-14T02:05:56.929Z,8.41
2023-02-14T02:06:56.931Z,8.45
2023-02-14T02:07:56.949Z,8.42
2023-02-14T02:08:56.938Z,8.44
2023-02-14T02:09:56.950Z,8.37
2023-02-14T02:10:57.198Z,8.38
2023-02-14T02:11:56.957Z,8.30
2023-02-14T02:12:56.958Z,8.27
2023-02-14T02:13:56.964Z,8.31
2023-02-14T02:14:56.963Z,8.30
2023-02-14T02:15:56.966Z,8.30
2023-02-14T02:16:57.054Z,8.30
2023-02-14T02:17:56.976Z,8.31
2023-02-14T02:18:56.978Z,8.31
2023-02-14T02:19:56.986Z,8.30
2023-02-14T02:20:57.131Z,8.30
2023-02-14T02:21:56.981Z,8.30
2023-02-14T02:22:56.998Z,8.31
2023-02-14T02:23:56.988Z,8.30
2023-02-14T02:24:57.001Z,8.27
2023-02-14T02:25:56.995Z,8.28
2023-02-14T02:26:57.006Z,8.34
2023-02-14T02:27:57.009Z,8.38
2023-02-14T02:28:57.014Z,8.38
2023-02-14T02:29:57.116Z,8.42
2023-02-14T02:30:57.551Z,8.36
2023-02-14T02:31:57.137Z,8.45
2023-02-14T02:32:57.037Z,8.49
2023-02-14T02:33:57.021Z,8.52
2023-02-14T02:34:57.025Z,8.48
2023-02-14T02:35:57.027Z,8.52
2023-02-14T02:36:57.031Z,8.55
2023-02-14T02:37:57.038Z,8.49
2023-02-14T02:38:57.036Z,8.49
2023-02-14T02:39:57.044Z,8.49
2023-02-14T02:40:57.296Z,8.51
2023-02-14T02:41:57.048Z,8.53
2023-02-14T02:42:57.057Z,8.52
2023-02-14T02:43:57.062Z,8.53
2023-02-14T02:44:57.059Z,8.55
2023-02-14T02:45:57.131Z,8.58
2023-02-14T02:46:57.071Z,8.48
2023-02-14T02:47:57.068Z,8.46
2023-02-14T02:48:57.107Z,8.51
2023-02-14T02:49:57.084Z,8.52
2023-02-14T02:50:57.486Z,8.44
2023-02-14T02:51:57.081Z,8.52
2023-02-14T02:52:57.096Z,8.51
2023-02-14T02:53:57.084Z,8.51
2023-02-14T02:54:57.097Z,8.49
2023-02-14T02:55:57.102Z,8.46
2023-02-14T02:56:57.096Z,8.44
2023-02-14T02:57:57.101Z,8.45
2023-02-14T02:58:57.107Z,8.42
2023-02-14T02:59:57.105Z,8.34
2023-02-14T03:00:57.345Z,8.36
2023-02-14T03:01:57.119Z,8.42
2023-02-14T03:02:57.118Z,8.46
2023-02-14T03:03:57.117Z,8.34
2023-02-14T03:04:57.233Z,8.34
2023-02-14T03:05:57.124Z,8.37
2023-02-14T03:06:57.136Z,8.33
2023-02-14T03:07:57.130Z,8.33
2023-02-14T03:08:57.135Z,8.28
2023-02-14T03:09:57.140Z,8.28
2023-02-14T03:10:57.366Z,8.37
2023-02-14T03:11:57.143Z,8.33
2023-02-14T03:12:57.154Z,8.19
2023-02-14T03:13:57.158Z,8.18
2023-02-14T03:14:57.159Z,8.05
2023-02-14T03:15:57.218Z,8.03
2023-02-14T03:16:57.171Z,7.90
2023-02-14T03:17:57.170Z,7.91
2023-02-14T03:18:57.174Z,7.88
2023-02-14T03:19:57.174Z,8.00
2023-02-14T03:20:57.307Z,7.97
2023-02-14T03:21:57.182Z,7.85
2023-02-14T03:22:57.183Z,7.83
2023-02-14T03:23:57.183Z,7.94
2023-02-14T03:24:57.184Z,7.98
2023-02-14T03:25:57.199Z,7.93
2023-02-14T03:26:57.190Z,8.00
2023-02-14T03:27:57.196Z,7.95
2023-02-14T03:28:57.196Z,8.05
2023-02-14T03:29:57.271Z,8.03
2023-02-14T03:30:57.475Z,8.05
2023-02-14T03:31:57.433Z,8.06
2023-02-14T03:32:57.213Z,8.01
2023-02-14T03:33:57.211Z,8.06
2023-02-14T03:34:57.222Z,8.01
2023-02-14T03:35:57.218Z,8.08
2023-02-14T03:36:57.250Z,8.00
2023-02-14T03:37:57.224Z,8.01
2023-02-14T03:38:57.237Z,8.00
2023-02-14T03:39:57.229Z,7.88
2023-02-14T03:40:57.560Z,7.94
2023-02-14T03:41:57.243Z,7.83
2023-02-14T03:42:57.245Z,7.82
2023-02-14T03:43:57.251Z,7.90
2023-02-14T03:44:57.304Z,7.85
2023-02-14T03:45:57.282Z,7.82
2023-02-14T03:46:57.258Z,7.83
2023-02-14T03:47:57.252Z,7.88
2023-02-14T03:48:57.268Z,7.87
2023-02-14T03:49:57.265Z,7.91
2023-02-14T03:50:57.533Z,7.88
2023-02-14T03:51:57.270Z,7.91
2023-02-14T03:52:57.307Z,7.88
2023-02-14T03:53:57.280Z,7.88
2023-02-14T03:54:57.274Z,7.90
2023-02-14T03:55:57.281Z,7.83
2023-02-14T03:56:57.286Z,7.83
2023-02-14T03:57:57.289Z,7.95
2023-02-14T03:58:57.292Z,7.97
2023-02-14T03:59:57.285Z,7.90
2023-02-14T04:00:57.515Z,7.90
2023-02-14T04:01:57.412Z,7.91
2023-02-14T04:02:57.294Z,7.73
2023-02-14T04:03:57.395Z,7.76
2023-02-14T04:04:57.307Z,7.76
2023-02-14T04:05:57.312Z,7.75
2023-02-14T04:06:57.309Z,7.75
2023-02-14T04:07:57.319Z,7.73
2023-02-14T04:08:57.337Z,7.75
2023-02-14T04:09:57.316Z,7.70
2023-02-14T04:10:57.615Z,7.72
2023-02-14T04:11:57.320Z,7.60
2023-02-14T04:12:57.327Z,7.60
2023-02-14T04:13:57.332Z,7.66
2023-02-14T04:14:57.330Z,7.57
2023-02-14T04:15:57.408Z,7.43
2023-02-14T04:16:57.344Z,7.48
2023-02-14T04:17:57.345Z,7.47
2023-02-14T04:18:57.353Z,7.39
2023-02-14T04:19:57.367Z,7.31
2023-02-14T04:20:57.661Z,7.06
2023-02-14T04:21:57.349Z,7.15
2023-02-14T04:22:57.359Z,6.99
2023-02-14T04:23:57.354Z,6.97
2023-02-14T04:24:57.431Z,6.96
2023-02-14T04:25:57.367Z,6.92
2023-02-14T04:26:57.364Z,6.89
2023-02-14T04:27:57.381Z,6.96
2023-02-14T04:28:57.368Z,6.97
2023-02-14T04:29:57.411Z,6.89
2023-02-14T04:30:57.664Z,6.81
2023-02-14T04:31:57.465Z,6.77
2023-02-14T04:32:57.381Z,6.75
2023-02-14T04:33:57.381Z,6.67
2023-02-14T04:34:57.387Z,6.66
2023-02-14T04:35:57.389Z,6.66
2023-02-14T04:36:57.398Z,6.72
2023-02-14T04:37:57.399Z,6.75
2023-02-14T04:38:57.397Z,6.75
2023-02-14T04:39:57.390Z,6.77
2023-02-14T04:40:57.719Z,6.77
2023-02-14T04:41:57.400Z,6.78
2023-02-14T04:42:57.406Z,6.78
2023-02-14T04:43:57.409Z,6.66
2023-02-14T04:44:57.411Z,6.59
2023-02-14T04:45:57.412Z,6.52
2023-02-14T04:46:57.409Z,6.45
2023-02-14T04:47:57.430Z,6.33
2023-02-14T04:48:57.425Z,6.31
2023-02-14T04:49:57.427Z,6.28
2023-02-14T04:50:57.578Z,6.22
2023-02-14T04:51:57.424Z,6.28
2023-02-14T04:52:57.437Z,6.26
2023-02-14T04:53:57.426Z,6.17
2023-02-14T04:54:57.432Z,6.19
2023-02-14T04:55:57.436Z,6.12
2023-02-14T04:56:57.456Z,6.11
2023-02-14T04:57:57.440Z,6.07
2023-02-14T04:58:57.441Z,6.20
2023-02-14T04:59:57.439Z,6.22
2023-02-14T05:00:57.707Z,6.30
2023-02-14T05:01:57.544Z,6.33
2023-02-14T05:02:57.441Z,6.31
2023-02-14T05:03:57.443Z,6.27
2023-02-14T05:04:57.446Z,6.33
2023-02-14T05:05:57.463Z,6.36
2023-02-14T05:06:57.453Z,6.33
2023-02-14T05:07:57.463Z,6.46
2023-02-14T05:08:57.458Z,6.56
2023-02-14T05:09:57.455Z,6.52
2023-02-14T05:10:57.727Z,6.46
2023-02-14T05:11:57.466Z,6.38
2023-02-14T05:12:57.484Z,6.36
2023-02-14T05:13:57.473Z,6.24
2023-02-14T05:14:57.479Z,6.27
2023-02-14T05:15:57.549Z,6.30
2023-02-14T05:16:57.477Z,6.20
2023-02-14T05:17:57.480Z,6.22
2023-02-14T05:18:57.481Z,6.09
2023-02-14T05:19:57.482Z,6.07
2023-02-14T05:20:58.066Z,6.16
2023-02-14T05:21:57.479Z,6.04
2023-02-14T05:22:57.483Z,6.07
2023-02-14T05:23:57.492Z,6.05
2023-02-14T05:24:57.498Z,6.08
2023-02-14T05:25:57.494Z,6.16
2023-02-14T05:26:57.497Z,6.19
2023-02-14T05:27:57.490Z,6.27
2023-02-14T05:28:57.516Z,6.28
2023-02-14T05:29:57.529Z,6.44
2023-02-14T05:30:57.611Z,6.33
2023-02-14T05:31:57.574Z,6.30
2023-02-14T05:32:57.503Z,6.24
2023-02-14T05:33:57.505Z,6.28
2023-02-14T05:34:58.419Z,6.28
2023-02-14T05:35:57.507Z,6.28
2023-02-14T05:36:57.516Z,6.26
2023-02-14T05:37:57.520Z,6.22
2023-02-14T05:38:57.521Z,6.24
2023-02-14T05:39:57.530Z,6.28
2023-02-14T05:40:57.807Z,6.16
2023-02-14T05:41:59.338Z,6.12
2023-02-14T05:42:57.528Z,6.17
2023-02-14T05:43:57.524Z,6.11
2023-02-14T05:44:57.552Z,6.09
2023-02-14T05:45:57.652Z,6.09
2023-02-14T05:46:57.538Z,6.12
2023-02-14T05:47:57.543Z,6.12
2023-02-14T05:48:57.542Z,6.19
2023-02-14T05:49:57.540Z,6.14
2023-02-14T05:50:58.010Z,6.22
2023-02-14T05:51:57.555Z,6.16
2023-02-14T05:52:57.554Z,6.19
2023-02-14T05:53:57.554Z,6.19
2023-02-14T05:54:57.560Z,6.05
2023-02-14T05:55:57.565Z,6.02
2023-02-14T05:56:57.563Z,5.94
2023-02-14T05:57:57.564Z,5.86
2023-02-14T05:58:57.579Z,5.76
2023-02-14T05:59:57.570Z,5.76
2023-02-14T06:00:57.820Z,5.79
2023-02-14T06:01:57.610Z,5.76
2023-02-14T06:02:57.566Z,5.82
2023-02-14T06:03:57.571Z,5.90
2023-02-14T06:04:57.575Z,5.87
2023-02-14T06:05:57.585Z,5.89
2023-02-14T06:06:57.585Z,5.86
2023-02-14T06:07:57.588Z,5.89
2023-02-14T06:08:57.584Z,5.90
2023-02-14T06:09:57.592Z,5.93
2023-02-14T06:10:57.817Z,5.97
2023-02-14T06:11:57.587Z,5.98
2023-02-14T06:12:57.600Z,6.02
2023-02-14T06:13:57.596Z,6.02
2023-02-14T06:14:57.594Z,6.07
2023-02-14T06:15:57.596Z,5.98
2023-02-14T06:16:57.686Z,5.91
2023-02-14T06:17:57.603Z,5.84
2023-02-14T06:18:57.608Z,5.82
2023-02-14T06:19:57.610Z,5.83
2023-02-14T06:20:58.115Z,5.79
2023-02-14T06:21:57.614Z,5.71
2023-02-14T06:22:57.609Z,5.71
2023-02-14T06:23:57.621Z,5.62
2023-02-14T06:24:57.624Z,5.62
2023-02-14T06:25:57.615Z,5.69
2023-02-14T06:26:57.619Z,5.66
2023-02-14T06:27:57.644Z,5.73
2023-02-14T06:28:57.622Z,5.75
2023-02-14T06:29:57.693Z,5.87
2023-02-14T06:30:57.907Z,5.94
2023-02-14T06:31:57.811Z,5.97
2023-02-14T06:32:57.661Z,5.98
2023-02-14T06:33:57.627Z,6.04
2023-02-14T06:34:57.645Z,6.02
2023-02-14T06:35:57.635Z,6.04
2023-02-14T06:36:57.642Z,6.12
2023-02-14T06:37:57.638Z,6.09
2023-02-14T06:38:57.636Z,6.16
2023-02-14T06:39:57.643Z,6.11
2023-02-14T06:41:00.362Z,6.14
2023-02-14T06:41:57.645Z,6.12
2023-02-14T06:42:57.653Z,6.07
2023-02-14T06:43:57.649Z,6.07
2023-02-14T06:44:57.652Z,6.04
2023-02-14T06:45:57.739Z,6.17
2023-02-14T06:46:57.657Z,6.12
2023-02-14T06:47:57.664Z,6.12
2023-02-14T06:48:57.682Z,6.14
2023-02-14T06:49:57.669Z,6.17
2023-02-14T06:50:58.249Z,6.08
2023-02-14T06:51:57.670Z,6.05
2023-02-14T06:52:57.673Z,6.07
2023-02-14T06:53:57.675Z,6.04
2023-02-14T06:54:57.671Z,6.05
2023-02-14T06:55:57.678Z,6.05
2023-02-14T06:56:57.681Z,6.04
2023-02-14T06:57:57.684Z,6.12
2023-02-14T06:58:57.680Z,6.11
2023-02-14T06:59:57.690Z,6.12
2023-02-14T07:00:58.001Z,6.14
2023-02-14T07:01:57.685Z,6.12
2023-02-14T07:02:57.795Z,6.24
2023-02-14T07:03:57.698Z,6.12
2023-02-14T07:04:57.718Z,6.22
2023-02-14T07:05:57.697Z,6.24
2023-02-14T07:06:57.696Z,6.20
2023-02-14T07:07:57.698Z,6.19
2023-02-14T07:08:57.701Z,6.36
2023-02-14T07:09:57.700Z,6.26
2023-02-14T07:10:58.237Z,6.31
2023-02-14T07:11:57.715Z,6.36
2023-02-14T07:12:57.707Z,6.31
2023-02-14T07:13:57.723Z,6.27
2023-02-14T07:14:57.710Z,6.12
2023-02-14T07:15:57.760Z,6.16
2023-02-14T07:16:57.723Z,6.14
2023-02-14T07:17:57.722Z,6.19
2023-02-14T07:18:57.727Z,6.22
2023-02-14T07:19:57.731Z,6.27
2023-02-14T07:20:58.261Z,6.16
2023-02-14T07:21:57.743Z,6.11
2023-02-14T07:22:57.734Z,6.17
2023-02-14T07:23:57.740Z,6.14
2023-02-14T07:24:57.743Z,6.17
2023-02-14T07:25:57.744Z,6.17
2023-02-14T07:26:57.736Z,6.30
2023-02-14T07:27:57.748Z,6.28
2023-02-14T07:28:57.750Z,6.26
2023-02-14T07:29:57.780Z,6.31
2023-02-14T07:30:57.984Z,6.24
2023-02-14T07:31:57.880Z,6.26
2023-02-14T07:32:57.751Z,6.27
2023-02-14T07:33:57.753Z,6.28
2023-02-14T07:34:57.754Z,6.31
2023-02-14T07:35:57.763Z,6.39
2023-02-14T07:36:57.781Z,6.39
2023-02-14T07:37:57.770Z,6.39
2023-02-14T07:38:57.780Z,6.39
2023-02-14T07:39:57.768Z,6.30
2023-02-14T07:40:58.106Z,6.42
2023-02-14T07:41:57.770Z,6.35
2023-02-14T07:42:57.781Z,6.36
2023-02-14T07:43:57.781Z,6.44
2023-02-14T07:44:57.787Z,6.26
2023-02-14T07:45:57.844Z,6.22
2023-02-14T07:46:57.785Z,6.16
2023-02-14T07:47:57.784Z,6.04
2023-02-14T07:48:57.793Z,6.05
2023-02-14T07:49:57.797Z,6.02
2023-02-14T07:50:58.293Z,6.02
2023-02-14T07:51:57.800Z,6.05
2023-02-14T07:52:57.891Z,6.08
2023-02-14T07:53:57.806Z,6.07
2023-02-14T07:54:57.806Z,6.08
2023-02-14T07:55:57.801Z,6.09
2023-02-14T07:56:57.835Z,6.05
2023-02-14T07:57:57.810Z,6.04
2023-02-14T07:58:57.808Z,6.09
2023-02-14T07:59:57.821Z,6.16
2023-02-14T08:00:58.349Z,6.11
2023-02-14T08:01:57.926Z,6.08
2023-02-14T08:02:57.823Z,6.17
2023-02-14T08:03:57.833Z,6.19
2023-02-14T08:04:57.912Z,6.16
2023-02-14T08:05:57.849Z,6.16
2023-02-14T08:06:57.860Z,6.16
2023-02-14T08:07:57.829Z,6.26
2023-02-14T08:08:57.860Z,6.17
2023-02-14T08:09:57.849Z,6.20
2023-02-14T08:10:58.114Z,6.20
2023-02-14T08:11:57.835Z,6.30
2023-02-14T08:12:57.841Z,6.28
2023-02-14T08:13:57.839Z,6.27
2023-02-14T08:14:57.850Z,6.26
2023-02-14T08:15:57.911Z,6.24
2023-02-14T08:16:57.851Z,6.28
2023-02-14T08:17:57.862Z,6.26
2023-02-14T08:18:57.853Z,6.24
2023-02-14T08:19:57.862Z,6.30
2023-02-14T08:20:58.192Z,6.33
2023-02-14T08:21:57.868Z,6.31
2023-02-14T08:22:57.867Z,6.46
2023-02-14T08:23:57.869Z,6.45
2023-02-14T08:24:57.891Z,6.51
2023-02-14T08:25:57.870Z,6.52
2023-02-14T08:26:57.874Z,6.52
2023-02-14T08:27:57.873Z,6.62
2023-02-14T08:28:57.875Z,6.52
2023-02-14T08:29:57.956Z,6.52
2023-02-14T08:30:58.304Z,6.52
2023-02-14T08:31:57.992Z,6.57
2023-02-14T08:32:57.928Z,6.49
2023-02-14T08:33:57.897Z,6.49
2023-02-14T08:34:57.889Z,6.59
2023-02-14T08:35:57.906Z,6.52
2023-02-14T08:36:57.898Z,6.56
2023-02-14T08:37:57.917Z,6.62
2023-02-14T08:38:57.997Z,6.57
2023-02-14T08:39:57.913Z,6.64
2023-02-14T08:40:58.253Z,6.59
2023-02-14T08:41:57.909Z,6.60
2023-02-14T08:42:57.912Z,6.67
2023-02-14T08:43:57.916Z,6.70
2023-02-14T08:44:57.918Z,6.78
2023-02-14T08:45:58.454Z,6.75
2023-02-14T08:46:57.998Z,6.84
2023-02-14T08:47:57.935Z,6.89
2023-02-14T08:48:57.940Z,6.89
2023-02-14T08:49:57.940Z,6.78
2023-02-14T08:50:58.211Z,6.89
2023-02-14T08:51:57.947Z,6.89
2023-02-14T08:52:58.002Z,6.93
2023-02-14T08:53:58.009Z,6.99
2023-02-14T08:54:57.953Z,7.02
2023-02-14T08:55:58.434Z,6.97
2023-02-14T08:56:57.987Z,7.05
2023-02-14T08:57:58.011Z,7.03
2023-02-14T08:58:57.962Z,7.15
2023-02-14T08:59:57.983Z,7.13
2023-02-14T09:00:58.421Z,7.18
2023-02-14T09:01:57.985Z,7.24
2023-02-14T09:02:57.975Z,7.28
2023-02-14T09:03:58.115Z,7.18
2023-02-14T09:04:58.003Z,7.23
2023-02-14T09:05:57.992Z,7.21
2023-02-14T09:06:58.003Z,7.23
2023-02-14T09:07:58.028Z,7.29
2023-02-14T09:08:58.014Z,7.21
2023-02-14T09:09:58.019Z,7.21
2023-02-14T09:10:58.550Z,7.24
2023-02-14T09:11:58.008Z,7.23
2023-02-14T09:12:58.044Z,7.18
2023-02-14T09:13:58.015Z,7.21
2023-02-14T09:14:58.057Z,7.21
2023-02-14T09:15:58.165Z,7.24
2023-02-14T09:16:58.125Z,7.20
2023-02-14T09:17:58.035Z,7.21
2023-02-14T09:18:58.029Z,7.18
2023-02-14T09:19:58.027Z,7.21
2023-02-14T09:20:58.407Z,7.24
2023-02-14T09:21:58.057Z,7.20
2023-02-14T09:22:58.049Z,7.24
2023-02-14T09:23:58.040Z,7.42
2023-02-14T09:24:58.049Z,7.43
2023-02-14T09:25:58.055Z,7.35
2023-02-14T09:26:58.049Z,7.40
2023-02-14T09:27:58.060Z,7.43
2023-02-14T09:28:58.082Z,7.47
2023-02-14T09:29:58.121Z,7.50
2023-02-14T09:30:58.432Z,7.53
2023-02-14T09:31:58.206Z,7.47
2023-02-14T09:32:58.086Z,7.58
2023-02-14T09:33:58.076Z,7.61
2023-02-14T09:34:58.096Z,7.69
2023-02-14T09:35:58.089Z,7.75
2023-02-14T09:36:58.097Z,7.72
2023-02-14T09:37:58.097Z,7.80
2023-02-14T09:38:58.097Z,7.72
2023-02-14T09:39:58.103Z,7.90
2023-02-14T09:40:58.485Z,7.80
2023-02-14T09:41:58.112Z,7.73
2023-02-14T09:43:00.084Z,7.82
2023-02-14T09:43:58.117Z,7.82
2023-02-14T09:44:58.137Z,7.87
2023-02-14T09:45:58.168Z,7.90
2023-02-14T09:46:58.127Z,7.87
2023-02-14T09:47:58.134Z,7.94
2023-02-14T09:48:58.164Z,7.93
2023-02-14T09:49:58.213Z,8.03
2023-02-14T09:50:58.495Z,7.97
2023-02-14T09:51:58.148Z,8.03
2023-02-14T09:52:58.161Z,8.15
2023-02-14T09:53:58.148Z,8.16
2023-02-14T09:54:58.165Z,8.19
2023-02-14T09:55:58.165Z,8.27
2023-02-14T09:56:58.174Z,8.28
2023-02-14T09:57:58.172Z,8.30
2023-02-14T09:58:58.170Z,8.36
2023-02-14T09:59:58.175Z,8.36
2023-02-14T10:00:58.491Z,8.42
2023-02-14T10:01:58.335Z,8.41
2023-02-14T10:02:58.194Z,8.38
2023-02-14T10:03:58.202Z,8.49
2023-02-14T10:04:58.191Z,8.53
2023-02-14T10:05:58.199Z,8.55
2023-02-14T10:06:58.201Z,8.49
2023-02-14T10:07:58.220Z,8.46
2023-02-14T10:08:58.209Z,8.52
2023-02-14T10:09:58.216Z,8.52
2023-02-14T10:10:58.570Z,8.49
2023-02-14T10:11:58.236Z,8.60
2023-02-14T10:12:58.225Z,8.63
2023-02-14T10:13:58.232Z,8.74
2023-02-14T10:14:58.241Z,8.73
2023-02-14T10:15:58.243Z,8.84
2023-02-14T10:16:58.351Z,8.88
2023-02-14T10:17:58.260Z,8.91
2023-02-14T10:18:58.252Z,8.91
2023-02-14T10:19:58.288Z,8.88
2023-02-14T10:20:58.791Z,8.95
2023-02-14T10:21:58.270Z,8.94
2023-02-14T10:22:58.283Z,9.03
2023-02-14T10:23:58.274Z,9.02
2023-02-14T10:24:58.283Z,8.97
2023-02-14T10:25:58.288Z,9.02
2023-02-14T10:26:58.288Z,8.97
2023-02-14T10:27:58.320Z,8.88
2023-02-14T10:28:58.303Z,8.88
2023-02-14T10:29:58.351Z,8.89
2023-02-14T10:30:58.550Z,8.91
2023-02-14T10:31:58.396Z,8.91
2023-02-14T10:32:58.329Z,8.91
2023-02-14T10:33:58.322Z,8.88
2023-02-14T10:34:58.335Z,8.89
2023-02-14T10:35:58.340Z,8.91
2023-02-14T10:36:58.343Z,8.94
2023-02-14T10:37:58.351Z,9.06
2023-02-14T10:38:58.350Z,8.95
2023-02-14T10:39:58.353Z,9.04
2023-02-14T10:40:58.838Z,9.10
2023-02-14T10:41:58.370Z,9.18
2023-02-14T10:42:58.370Z,9.25
2023-02-14T10:43:58.395Z,9.22
2023-02-14T10:44:58.385Z,9.37
2023-02-14T10:45:58.449Z,9.48
2023-02-14T10:46:58.395Z,9.48
2023-02-14T10:47:58.405Z,9.69
2023-02-14T10:48:58.401Z,9.72
2023-02-14T10:49:58.407Z,9.68
2023-02-14T10:50:58.785Z,9.66
2023-02-14T10:51:58.419Z,9.74
2023-02-14T10:52:58.413Z,9.76
2023-02-14T10:53:58.431Z,9.74
2023-02-14T10:54:58.424Z,9.76
2023-02-14T10:55:58.433Z,9.95
2023-02-14T10:56:58.735Z,10.01
2023-02-14T10:57:58.448Z,10.07
2023-02-14T10:58:58.442Z,9.99
2023-02-14T10:59:58.500Z,10.10
2023-02-14T11:00:59.029Z,10.07
2023-02-14T11:01:58.461Z,10.10
2023-02-14T11:02:58.472Z,10.25
2023-02-14T11:03:58.624Z,10.23
2023-02-14T11:04:58.484Z,10.37
2023-02-14T11:05:58.491Z,10.31
2023-02-14T11:06:58.495Z,10.25
2023-02-14T11:07:58.499Z,10.38
2023-02-14T11:08:58.511Z,10.42
2023-02-14T11:09:58.518Z,10.42
2023-02-14T11:10:58.835Z,10.40
2023-02-14T11:11:58.524Z,10.46
2023-02-14T11:12:58.546Z,10.48
2023-02-14T11:13:58.536Z,10.49
2023-02-14T11:14:58.541Z,10.68
2023-02-14T11:15:58.871Z,10.76
2023-02-14T11:16:58.733Z,10.87
2023-02-14T11:17:58.556Z,10.89
2023-02-14T11:18:58.564Z,10.86
2023-02-14T11:19:58.568Z,10.96
2023-02-14T11:20:58.577Z,11.05
2023-02-14T11:21:58.580Z,10.99
2023-02-14T11:22:58.582Z,11.23
2023-02-14T11:23:58.590Z,11.30
2023-02-14T11:24:58.606Z,11.35
2023-02-14T11:25:58.901Z,11.48
2023-02-14T11:28:11.212Z,11.91
2023-02-14T11:29:11.216Z,12.10
2023-02-14T11:30:11.254Z,12.36
2023-02-14T11:31:11.324Z,12.43
2023-02-14T11:32:11.232Z,12.54
2023-02-14T11:33:11.248Z,12.60
2023-02-14T11:34:11.259Z,12.75
2023-02-14T11:35:11.262Z,12.67
2023-02-14T11:36:11.270Z,12.72
2023-02-14T11:37:11.277Z,12.85
2023-02-14T11:38:11.282Z,12.76
2023-02-14T11:39:11.288Z,12.67
2023-02-14T11:40:11.301Z,12.75
2023-02-14T11:41:11.306Z,12.62
2023-02-14T11:42:11.310Z,12.70
2023-02-14T11:43:14.412Z,12.72
2023-02-14T11:44:11.333Z,12.95
2023-02-14T11:45:11.336Z,13.13
2023-02-14T11:55:30.485Z,15.54
2023-02-14T11:56:30.464Z,15.76
2023-02-14T14:23:01.849Z,12.95
2023-02-14T14:24:01.844Z,12.82
2023-02-14T14:25:01.863Z,12.75
2023-02-14T14:26:02.176Z,12.72
2023-02-14T14:27:01.862Z,12.72
2023-02-14T14:28:01.898Z,12.57
2023-02-14T14:29:01.889Z,12.47
2023-02-14T14:30:01.956Z,12.43
2023-02-14T14:31:01.997Z,12.32
2023-02-14T14:32:01.975Z,12.31
2023-02-14T14:33:01.915Z,12.24
2023-02-14T14:34:01.925Z,12.15
2023-02-14T14:35:01.947Z,12.17
2023-02-14T14:36:02.378Z,12.04
2023-02-14T14:37:01.956Z,11.99
2023-02-14T14:38:01.965Z,11.95
2023-02-14T14:39:01.995Z,11.86
2023-02-14T14:40:01.982Z,11.83
2023-02-14T14:41:02.000Z,11.81
2023-02-14T14:42:01.997Z,11.80
2023-02-14T14:46:13.047Z,11.86
2023-02-14T14:47:12.948Z,11.88
2023-02-14T14:48:12.958Z,11.86
2023-02-14T14:51:38.823Z,11.81
2023-02-14T14:52:38.834Z,11.80
2023-02-14T14:53:38.839Z,11.84
2023-02-14T14:54:38.887Z,11.86
2023-02-14T14:55:39.691Z,11.80
2023-02-14T14:56:38.863Z,11.87
2023-02-14T14:57:38.882Z,11.91
2023-02-14T14:58:38.883Z,11.95
2023-02-14T14:59:38.898Z,11.90
2023-02-14T15:00:38.908Z,11.95
2023-02-14T15:02:51.513Z,11.90
2023-02-14T15:19:23.190Z,11.68
2023-02-14T15:20:23.162Z,11.88
2023-02-14T15:21:23.172Z,11.80
2023-02-14T15:22:23.178Z,11.69
2023-02-14T15:23:23.195Z,11.70
2023-02-14T15:24:23.191Z,11.72
2023-02-14T15:25:25.831Z,11.68
2023-02-14T15:26:23.210Z,11.66
2023-02-14T15:27:23.221Z,11.60
2023-02-14T15:28:23.226Z,11.59
2023-02-14T15:29:23.236Z,11.50
2023-02-14T15:30:23.340Z,11.33
2023-02-14T15:31:23.427Z,11.43
2023-02-14T15:32:23.323Z,11.33
2023-02-14T15:33:23.264Z,11.30
2023-02-14T15:34:23.274Z,11.22
2023-02-14T15:35:23.297Z,11.19
2023-02-14T15:36:24.161Z,11.12
2023-02-14T15:37:23.285Z,11.11
2023-02-14T15:38:23.300Z,11.08
2023-02-14T15:39:23.300Z,11.04
2023-02-14T15:40:23.313Z,11.05
2023-02-14T15:41:23.324Z,11.07
2023-02-14T15:42:23.359Z,11.02
2023-02-14T15:43:23.327Z,10.96
2023-02-14T15:44:23.343Z,10.99
2023-02-14T15:45:23.343Z,10.96
2023-02-14T15:46:23.429Z,10.96
2023-02-14T15:47:23.361Z,10.97
2023-02-14T15:48:23.360Z,10.87
2023-02-14T15:49:23.377Z,10.87
2023-02-14T15:50:23.406Z,10.82
2023-02-14T15:51:23.416Z,10.89
2023-02-14T15:52:23.391Z,10.76
2023-02-14T15:53:23.395Z,10.82
2023-02-14T15:54:23.412Z,10.79
2023-02-14T15:55:23.408Z,10.67
2023-02-14T15:56:23.413Z,10.76
2023-02-14T15:57:23.426Z,10.72
2023-02-14T15:58:23.428Z,10.75
2023-02-14T15:59:23.554Z,10.67
2023-02-14T16:00:23.439Z,10.68
2023-02-14T16:01:23.480Z,10.67
2023-02-14T16:02:23.460Z,10.54
2023-02-14T16:03:23.460Z,10.51
2023-02-14T16:04:23.461Z,10.53
2023-02-14T16:05:23.460Z,10.53
2023-02-14T16:06:23.468Z,10.42
2023-02-14T16:07:23.506Z,10.40
2023-02-14T16:08:23.485Z,10.41
2023-02-14T16:09:23.479Z,10.37
2023-02-14T16:10:23.490Z,10.42
2023-02-14T16:11:23.497Z,10.38
2023-02-14T16:12:23.503Z,10.40